Terminal Aerodrome Forecast
Issued by NWS Pittsburgh, PA

Current Version | Previous Version | Graphics & Text | Print | Product List | Glossary On
Versions: 1 2 3 4 5 6 7 8 9 10 11 12 13 14 15 16 17 18 19 20 21 22 23 24 25 26 27
760
FTUS41 KPBZ 172121 AAA
TAFPIT
TAF AMD
KPIT 172121Z 1721/1824 25004KT P6SM FEW040 SCT100
     FM180000 00000KT P6SM SCT250
     FM181000 00000KT 3SM BR SCT100
      TEMPO 1811/1813 1/2SM FG BKN002
     FM181500 00000KT P6SM SCT025=

USA.gov is the U.S. government's official web portal to all federal, state and local government web resources and services.